Time;durP1;ratioP1;P1;durP2;ratioP2;P2;SDS_P1;SDS_P2;PMS_P1;PMS_P2;Temp;Humidity;BMP_temperature;BMP_pressure;BME280_temperature;BME280_humidity;BME280_pressure;Samples;Min_cycle;Max_cycle;Signal;HPM_P1;HPM_P2
2021/05/14 00:01:13;;;;;;;2.23;1.30;;;10.40;99.90;;;;;;5096794;28;20037;-65
2021/05/14 00:03:39;;;;;;;1.50;1.40;;;10.40;99.90;;;;;;5078891;28;20024;-65
2021/05/14 00:06:05;;;;;;;2.63;1.40;;;10.30;99.90;;;;;;5097157;28;20509;-66
2021/05/14 00:08:30;;;;;;;2.20;1.35;;;10.30;99.90;;;;;;5097696;28;20020;-65
2021/05/14 00:10:56;;;;;;;2.80;1.00;;;10.30;99.90;;;;;;5096531;28;20024;-65
2021/05/14 00:13:23;;;;;;;2.47;1.20;;;10.30;99.90;;;;;;5096146;28;20031;-66
2021/05/14 00:15:49;;;;;;;2.65;1.30;;;10.40;99.90;;;;;;5096259;28;20032;-66
2021/05/14 00:18:14;;;;;;;1.67;1.05;;;10.70;99.90;;;;;;5096245;28;20023;-65
2021/05/14 00:20:45;;;;;;;1.73;0.90;;;10.70;99.90;;;;;;5096059;28;20392;-65
2021/05/14 00:23:12;;;;;;;1.30;1.00;;;10.60;99.90;;;;;;5096404;28;20020;-65
2021/05/14 00:25:38;;;;;;;1.85;1.20;;;10.50;99.90;;;;;;5096116;28;20024;-65
2021/05/14 00:28:04;;;;;;;1.30;1.20;;;10.40;99.90;;;;;;5095987;28;20058;-65
2021/05/14 00:30:29;;;;;;;1.98;0.80;;;10.30;99.90;;;;;;5096137;28;20028;-65
2021/05/14 00:32:55;;;;;;;1.80;0.93;;;10.30;99.90;;;;;;5095918;28;20025;-64
2021/05/14 00:35:20;;;;;;;2.37;1.30;;;10.30;99.90;;;;;;5094615;28;20258;-65
2021/05/14 00:37:46;;;;;;;1.13;0.70;;;10.40;99.90;;;;;;5077719;28;20032;-64
2021/05/14 00:40:12;;;;;;;1.40;0.80;;;10.30;99.90;;;;;;5095615;28;20020;-65
2021/05/14 00:42:38;;;;;;;1.23;0.80;;;10.20;99.90;;;;;;5095723;28;20024;-66
2021/05/14 00:45:07;;;;;;;1.87;0.87;;;10.20;99.90;;;;;;5095772;28;20035;-65
2021/05/14 00:47:32;;;;;;;2.17;1.02;;;10.10;99.90;;;;;;5095563;28;20099;-65
2021/05/14 00:49:58;;;;;;;2.30;0.80;;;10.30;99.90;;;;;;5095412;28;20063;-65
2021/05/14 00:52:24;;;;;;;1.77;1.17;;;10.20;99.90;;;;;;5095969;28;20027;-65
2021/05/14 00:54:50;;;;;;;1.40;0.90;;;10.20;99.90;;;;;;5095323;28;20024;-65
2021/05/14 00:57:17;;;;;;;2.67;1.13;;;10.20;99.90;;;;;;5095252;28;20058;-66
2021/05/14 00:59:43;;;;;;;;;;;10.10;99.90;;;;;;5095988;28;20127;-65
2021/05/14 01:02:09;;;;;;;2.10;0.90;;;10.10;99.90;;;;;;5095121;28;19912;-65
2021/05/14 01:04:36;;;;;;;2.35;1.08;;;10.10;99.90;;;;;;5095199;28;20032;-65
2021/05/14 01:07:03;;;;;;;1.92;0.93;;;10.10;99.90;;;;;;5095063;28;20036;-65
2021/05/14 01:09:28;;;;;;;2.10;0.93;;;10.10;99.90;;;;;;5095006;28;20076;-65
2021/05/14 01:11:54;;;;;;;5.77;0.97;;;10.10;99.90;;;;;;5095075;28;20110;-65
2021/05/14 01:14:20;;;;;;;2.35;1.38;;;10.10;99.90;;;;;;5094772;28;20028;-65
2021/05/14 01:16:46;;;;;;;1.42;0.80;;;10.10;99.90;;;;;;5095027;28;20040;-65
2021/05/14 01:19:12;;;;;;;4.88;0.95;;;10.10;99.90;;;;;;5095100;28;20362;-64
2021/05/14 01:21:38;;;;;;;2.00;0.90;;;10.20;99.90;;;;;;5094842;28;20024;-65
2021/05/14 01:24:05;;;;;;;1.50;1.10;;;10.20;99.90;;;;;;5094743;28;20035;-65
2021/05/14 01:26:30;;;;;;;3.28;0.90;;;10.20;99.90;;;;;;5076480;28;20034;-65
2021/05/14 01:28:56;;;;;;;1.73;0.90;;;10.20;99.90;;;;;;5077811;28;20115;-65
2021/05/14 01:31:23;;;;;;;1.52;1.00;;;10.20;99.90;;;;;;5095264;28;20024;-64
2021/05/14 01:33:49;;;;;;;1.42;1.13;;;10.10;99.90;;;;;;5094515;28;20042;-65
2021/05/14 01:36:16;;;;;;;1.92;1.20;;;10.10;99.90;;;;;;5076445;28;20048;-64
2021/05/14 01:38:42;;;;;;;2.30;1.17;;;10.10;99.90;;;;;;5094612;28;20020;-65
2021/05/14 01:41:08;;;;;;;1.60;1.00;;;10.10;99.90;;;;;;5094408;28;20028;-65
2021/05/14 01:43:34;;;;;;;2.30;0.90;;;10.10;99.90;;;;;;5094578;28;20103;-64
2021/05/14 01:46:02;;;;;;;1.35;0.85;;;10.10;99.90;;;;;;5094257;28;20459;-65
2021/05/14 01:48:28;;;;;;;1.80;1.05;;;10.10;99.90;;;;;;5094272;28;20485;-64
2021/05/14 01:50:54;;;;;;;1.97;1.20;;;10.00;99.90;;;;;;5094231;28;20084;-64
2021/05/14 01:53:19;;;;;;;2.07;1.57;;;10.00;99.90;;;;;;5094710;28;20738;-65
2021/05/14 01:55:45;;;;;;;1.40;1.10;;;9.90;99.90;;;;;;5094277;28;20016;-65
2021/05/14 01:58:10;;;;;;;2.27;1.20;;;9.90;99.90;;;;;;5094784;28;20036;-65
2021/05/14 02:00:36;;;;;;;2.33;1.10;;;9.90;99.90;;;;;;5094242;28;20020;-65
2021/05/14 02:03:02;;;;;;;3.00;1.10;;;9.90;99.90;;;;;;5094106;28;20103;-65
2021/05/14 02:05:28;;;;;;;2.60;1.23;;;9.80;99.90;;;;;;5093903;28;20031;-65
2021/05/14 02:07:55;;;;;;;1.93;1.10;;;9.80;99.90;;;;;;5094038;28;20027;-65
2021/05/14 02:10:22;;;;;;;3.35;1.45;;;9.70;99.90;;;;;;5094415;28;20039;-65
2021/05/14 02:12:49;;;;;;;2.70;1.35;;;9.60;99.90;;;;;;5094077;28;20114;-65
2021/05/14 02:15:15;;;;;;;2.65;1.30;;;9.60;99.90;;;;;;5093686;28;20126;-65
2021/05/14 02:17:41;;;;;;;2.45;1.40;;;9.50;99.90;;;;;;5094181;28;20447;-65
2021/05/14 02:20:07;;;;;;;2.10;1.30;;;9.40;99.90;;;;;;5093694;28;20024;-65
2021/05/14 02:22:34;;;;;;;3.30;1.50;;;9.50;99.90;;;;;;5093812;28;20020;-65
2021/05/14 02:25:00;;;;;;;2.28;1.25;;;9.50;99.90;;;;;;5093514;28;20025;-65
2021/05/14 02:27:26;;;;;;;3.17;1.50;;;9.50;99.90;;;;;;5093720;28;20157;-65
2021/05/14 02:29:51;;;;;;;2.00;1.13;;;9.50;99.90;;;;;;5075222;28;20052;-65
2021/05/14 02:32:17;;;;;;;3.08;1.33;;;9.50;99.90;;;;;;5093414;28;20098;-65
2021/05/14 02:34:43;;;;;;;1.67;1.42;;;9.50;99.90;;;;;;5093330;28;20111;-65
2021/05/14 02:37:09;;;;;;;4.17;1.60;;;9.50;99.90;;;;;;5093573;28;20449;-65
2021/05/14 02:39:35;;;;;;;2.97;1.40;;;9.50;99.90;;;;;;5093374;28;20021;-65
2021/05/14 02:42:13;;;;;;;2.30;1.50;;;9.50;99.90;;;;;;5093504;28;20107;-65
2021/05/14 02:44:38;;;;;;;7.68;2.00;;;9.50;99.90;;;;;;5093356;28;20751;-65
2021/05/14 02:47:04;;;;;;;5.40;1.67;;;9.40;99.90;;;;;;5093500;28;20024;-65
2021/05/14 02:49:31;;;;;;;4.65;1.63;;;9.40;99.90;;;;;;5093400;28;20603;-65
2021/05/14 02:51:56;;;;;;;;;;;9.40;99.90;;;;;;5094538;28;20032;-65
2021/05/14 02:54:22;;;;;;;3.60;1.50;;;9.40;99.90;;;;;;5093537;28;20325;-64
2021/05/14 02:56:48;;;;;;;4.37;1.23;;;9.40;99.90;;;;;;5075086;28;20024;-64
2021/05/14 02:59:14;;;;;;;1.73;1.40;;;9.40;99.90;;;;;;5092579;28;20095;-65
2021/05/14 03:01:39;;;;;;;3.53;1.63;;;9.40;99.90;;;;;;5093021;28;20458;-65
2021/05/14 03:04:05;;;;;;;3.83;1.30;;;9.40;99.90;;;;;;5093310;28;20073;-64
2021/05/14 03:06:32;;;;;;;2.58;1.63;;;9.30;99.90;;;;;;5093556;28;20047;-65
2021/05/14 03:08:57;;;;;;;;;;;9.30;99.90;;;;;;5093674;28;20043;-64
2021/05/14 03:11:24;;;;;;;3.05;1.60;;;9.20;99.90;;;;;;5092996;28;19904;-65
2021/05/14 03:13:49;;;;;;;1.92;1.10;;;9.20;99.90;;;;;;5093089;28;20024;-64
2021/05/14 03:16:15;;;;;;;2.40;1.40;;;9.20;99.90;;;;;;5093251;28;20496;-65
2021/05/14 03:18:40;;;;;;;2.67;1.40;;;9.10;99.90;;;;;;5092950;28;20039;-66
2021/05/14 03:21:06;;;;;;;1.70;1.30;;;9.10;99.90;;;;;;5092946;28;20028;-66
2021/05/14 03:23:32;;;;;;;1.90;1.50;;;9.20;99.90;;;;;;5092965;28;20035;-65
2021/05/14 03:25:57;;;;;;;2.30;1.60;;;9.10;99.90;;;;;;5092838;28;20028;-65
2021/05/14 03:28:23;;;;;;;3.50;1.50;;;9.10;99.90;;;;;;5092806;28;20020;-65
2021/05/14 03:30:51;;;;;;;3.40;1.73;;;9.10;99.90;;;;;;5074598;28;20039;-66
2021/05/14 03:33:20;;;;;;;2.35;1.65;;;9.00;99.90;;;;;;5092864;28;20024;-65
2021/05/14 03:35:47;;;;;;;2.58;1.67;;;9.00;99.90;;;;;;5074756;28;20115;-65
2021/05/14 03:38:13;;;;;;;3.33;1.73;;;8.90;99.90;;;;;;5092978;28;20028;-64
2021/05/14 03:40:40;;;;;;;2.20;1.17;;;8.90;99.90;;;;;;5093213;28;20036;-65
2021/05/14 03:43:06;;;;;;;4.40;1.67;;;8.90;99.90;;;;;;5074949;28;20024;-65
2021/05/14 03:45:32;;;;;;;7.17;1.30;;;8.90;99.90;;;;;;5093053;28;20024;-66
2021/05/14 03:47:58;;;;;;;6.13;1.50;;;9.00;99.90;;;;;;5092803;28;20258;-65
2021/05/14 03:50:31;;;;;;;4.10;1.40;;;9.00;99.90;;;;;;5093187;28;20258;-66
2021/05/14 03:52:58;;;;;;;5.25;1.67;;;9.00;99.90;;;;;;5074720;28;20024;-65
2021/05/14 03:55:24;;;;;;;2.80;1.33;;;9.00;99.90;;;;;;5092923;28;20370;-65
2021/05/14 03:57:50;;;;;;;3.05;1.45;;;9.00;99.90;;;;;;5075572;28;20035;-65
2021/05/14 04:00:16;;;;;;;6.73;1.63;;;9.00;99.90;;;;;;5092923;28;20468;-65
2021/05/14 04:02:42;;;;;;;2.92;1.48;;;9.00;99.90;;;;;;5074718;28;20020;-65
2021/05/14 04:05:08;;;;;;;3.37;1.60;;;9.10;99.90;;;;;;5093262;28;20024;-66
2021/05/14 04:07:34;;;;;;;;;;;9.10;99.90;;;;;;5093416;28;20341;-66
2021/05/14 04:10:25;;;;;;;4.03;1.83;;;9.10;99.90;;;;;;5093840;28;19943;-65
2021/05/14 04:15:34;;;;;;;3.03;1.77;;;9.00;99.90;;;;;;5098649;28;20039;-66
2021/05/14 04:18:00;;;;;;;3.67;1.57;;;9.00;99.90;;;;;;5097265;28;20016;-66
2021/05/14 04:20:25;;;;;;;2.97;1.80;;;9.00;99.90;;;;;;5097058;28;20020;-66
2021/05/14 04:22:51;;;;;;;6.13;1.70;;;9.00;99.90;;;;;;5100688;28;20031;-66
2021/05/14 04:25:18;;;;;;;4.85;1.67;;;9.00;99.90;;;;;;5081426;28;20024;-66
2021/05/14 04:27:43;;;;;;;4.35;1.33;;;9.00;99.90;;;;;;5098822;28;20049;-66
2021/05/14 04:30:09;;;;;;;3.00;1.90;;;9.10;99.90;;;;;;5096711;28;20444;-67
2021/05/14 04:32:35;;;;;;;3.60;1.65;;;9.10;99.90;;;;;;5096246;28;20012;-66
2021/05/14 04:35:01;;;;;;;1.63;1.43;;;9.10;99.90;;;;;;5095647;28;20082;-66
2021/05/14 04:37:26;;;;;;;3.03;2.00;;;9.10;99.90;;;;;;5096023;28;20057;-67
2021/05/14 04:39:52;;;;;;;3.73;2.10;;;9.20;99.90;;;;;;5095932;28;20028;-66
2021/05/14 04:42:17;;;;;;;5.77;2.07;;;9.20;99.90;;;;;;5095941;28;20012;-66
2021/05/14 04:44:43;;;;;;;4.23;2.10;;;9.20;99.90;;;;;;5095976;28;20468;-66
2021/05/14 04:47:09;;;;;;;2.70;1.67;;;9.20;99.90;;;;;;5095713;28;20074;-66
2021/05/14 04:49:34;;;;;;;4.87;1.67;;;9.30;99.90;;;;;;5095659;28;20392;-67
2021/05/14 04:52:00;;;;;;;2.00;1.43;;;9.30;99.90;;;;;;5095601;28;20024;-66
2021/05/14 04:54:26;;;;;;;2.60;1.40;;;9.40;99.90;;;;;;5095718;28;20448;-69
2021/05/14 04:56:52;;;;;;;4.13;1.50;;;9.40;99.90;;;;;;5095538;28;20370;-69
2021/05/14 04:59:18;;;;;;;4.18;1.75;;;9.50;99.90;;;;;;5095422;28;20020;-69
2021/05/14 05:01:44;;;;;;;5.10;1.60;;;9.50;99.90;;;;;;5077308;28;20052;-69
2021/05/14 05:04:10;;;;;;;2.83;1.88;;;9.50;99.90;;;;;;5095517;28;20032;-68
2021/05/14 05:06:37;;;;;;;3.47;1.70;;;9.50;99.90;;;;;;5095398;28;20027;-69
2021/05/14 05:09:04;;;;;;;3.17;1.83;;;9.50;99.90;;;;;;5096155;28;20024;-68
2021/05/14 05:11:29;;;;;;;3.28;2.40;;;9.60;99.90;;;;;;5096226;28;20468;-70
2021/05/14 05:13:55;;;;;;;2.50;1.60;;;9.60;99.90;;;;;;5076805;28;20024;-68
2021/05/14 05:16:21;;;;;;;3.00;1.90;;;9.60;99.90;;;;;;5094801;28;20507;-68
2021/05/14 05:18:46;;;;;;;4.57;1.60;;;9.60;99.90;;;;;;5077075;28;20027;-68
2021/05/14 05:21:12;;;;;;;4.97;1.63;;;9.80;99.90;;;;;;5094731;28;20020;-68
2021/05/14 05:23:38;;;;;;;4.13;1.83;;;9.90;99.90;;;;;;5094752;28;20020;-68
2021/05/14 05:26:03;;;;;;;3.60;1.53;;;10.00;99.90;;;;;;5095055;28;20107;-68
2021/05/14 05:28:32;;;;;;;3.20;1.50;;;10.20;99.90;;;;;;5076938;28;20339;-69
2021/05/14 05:30:58;;;;;;;3.35;1.33;;;10.40;99.90;;;;;;5096592;28;20418;-69
2021/05/14 05:33:23;;;;;;;5.67;1.50;;;10.50;99.90;;;;;;5098273;28;20026;-69
2021/05/14 05:35:49;;;;;;;2.67;1.50;;;10.70;99.90;;;;;;5094831;28;20043;-68
2021/05/14 05:38:16;;;;;;;3.47;1.70;;;10.90;99.90;;;;;;5094670;28;20496;-68
2021/05/14 05:40:42;;;;;;;4.05;1.75;;;11.00;99.90;;;;;;5076147;28;20055;-68
2021/05/14 05:43:09;;;;;;;3.40;1.50;;;11.20;99.90;;;;;;5094541;28;20055;-68
2021/05/14 05:45:34;;;;;;;6.47;1.60;;;11.30;99.90;;;;;;5076555;28;20414;-68
2021/05/14 05:48:00;;;;;;;3.00;1.40;;;11.40;99.90;;;;;;5094275;28;20441;-69
2021/05/14 05:50:26;;;;;;;3.10;1.40;;;11.50;99.90;;;;;;5094595;28;20024;-69
2021/05/14 05:52:54;;;;;;;1.52;1.30;;;11.50;99.90;;;;;;5095915;28;20080;-68
2021/05/14 05:55:20;;;;;;;3.75;1.40;;;11.40;99.90;;;;;;5095641;28;20472;-68
2021/05/14 05:57:46;;;;;;;3.15;1.50;;;11.30;99.90;;;;;;5092380;28;20020;-68
2021/05/14 06:00:12;;;;;;;2.60;1.67;;;11.20;99.90;;;;;;5093036;28;20143;-69
2021/05/14 06:02:37;;;;;;;2.80;1.48;;;11.30;99.90;;;;;;5093872;28;20024;-69
2021/05/14 06:05:04;;;;;;;3.77;1.57;;;11.30;99.90;;;;;;5093774;28;20039;-68
2021/05/14 06:07:29;;;;;;;4.18;1.85;;;11.30;99.90;;;;;;5075721;28;20434;-68
2021/05/14 06:09:55;;;;;;;2.23;1.10;;;11.40;99.90;;;;;;5094293;28;20028;-68
2021/05/14 06:12:21;;;;;;;2.40;1.40;;;11.40;99.90;;;;;;5093700;28;20028;-68
2021/05/14 06:14:46;;;;;;;5.03;2.28;;;11.40;99.90;;;;;;5093646;28;20024;-68
2021/05/14 06:17:12;;;;;;;3.00;1.50;;;11.40;99.90;;;;;;5093909;28;20028;-68
2021/05/14 06:19:56;;;;;;;2.85;1.40;;;11.40;99.90;;;;;;5094096;28;20021;-69
2021/05/14 06:22:22;;;;;;;2.47;1.30;;;11.40;99.90;;;;;;5094575;28;20085;-68
2021/05/14 06:24:48;;;;;;;5.50;1.70;;;11.40;99.90;;;;;;5075810;28;20477;-67
2021/05/14 06:27:13;;;;;;;2.90;1.10;;;11.40;99.90;;;;;;5093951;28;20508;-67
2021/05/14 06:29:41;;;;;;;2.73;1.57;;;11.40;99.90;;;;;;5075939;28;20024;-68
2021/05/14 06:32:07;;;;;;;2.13;1.20;;;11.40;99.90;;;;;;5093739;28;20078;-67
2021/05/14 06:34:34;;;;;;;1.73;1.23;;;11.40;99.90;;;;;;5074397;28;20481;-67
2021/05/14 06:37:00;;;;;;;1.83;1.20;;;11.50;99.90;;;;;;5075674;28;20031;-68
2021/05/14 06:39:25;;;;;;;2.93;1.60;;;11.50;99.90;;;;;;5093547;28;20028;-68
2021/05/14 06:41:51;;;;;;;2.90;1.58;;;11.60;99.90;;;;;;5093456;28;20023;-68
2021/05/14 06:44:17;;;;;;;2.83;1.50;;;11.60;99.90;;;;;;5093390;28;20409;-68
2021/05/14 06:46:43;;;;;;;3.23;1.50;;;11.60;99.90;;;;;;5093790;28;20034;-67
2021/05/14 06:49:09;;;;;;;4.22;1.55;;;11.70;99.90;;;;;;5093442;28;20262;-67
2021/05/14 06:51:35;;;;;;;2.00;1.30;;;11.70;99.90;;;;;;5075231;28;20097;-68
2021/05/14 06:54:01;;;;;;;2.78;1.42;;;11.80;99.90;;;;;;5093098;28;20441;-68
2021/05/14 06:56:27;;;;;;;2.53;1.40;;;11.90;99.90;;;;;;5093636;28;20021;-69
2021/05/14 06:58:54;;;;;;;1.90;1.08;;;11.90;99.90;;;;;;5093423;28;20024;-67
2021/05/14 07:01:24;;;;;;;2.20;1.15;;;12.00;99.90;;;;;;5093205;28;20023;-65
2021/05/14 07:03:50;;;;;;;2.45;1.35;;;12.00;99.90;;;;;;5093136;28;20024;-67
2021/05/14 07:06:17;;;;;;;2.28;1.10;;;12.10;99.90;;;;;;5075130;28;20024;-68
2021/05/14 07:08:44;;;;;;;3.30;1.33;;;12.20;99.90;;;;;;5093078;28;20586;-68
2021/05/14 07:11:10;;;;;;;6.80;1.40;;;12.30;99.90;;;;;;5074957;28;20393;-67
2021/05/14 07:13:35;;;;;;;1.83;1.00;;;12.30;99.90;;;;;;5092838;28;20024;-66
2021/05/14 07:16:01;;;;;;;3.83;1.37;;;12.40;99.90;;;;;;5092787;28;20028;-67
2021/05/14 07:18:27;;;;;;;1.23;1.00;;;12.50;99.90;;;;;;5093064;28;20831;-68
2021/05/14 07:20:53;;;;;;;3.22;0.98;;;12.50;99.90;;;;;;5093435;28;20380;-67
2021/05/14 07:23:20;;;;;;;1.48;0.82;;;12.60;99.90;;;;;;5093651;28;20136;-67
2021/05/14 07:25:46;;;;;;;2.13;1.23;;;12.70;99.90;;;;;;5093422;28;20357;-67
2021/05/14 07:28:11;;;;;;;1.30;0.70;;;12.70;99.90;;;;;;5075148;28;20058;-65
2021/05/14 07:30:37;;;;;;;1.00;0.80;;;12.80;99.90;;;;;;5093021;28;20029;-67
2021/05/14 07:33:03;;;;;;;2.78;0.70;;;12.90;99.90;;;;;;5093273;28;20032;-68
2021/05/14 07:35:29;;;;;;;2.00;0.90;;;13.00;99.90;;;;;;5093183;28;20024;-67
2021/05/14 07:37:54;;;;;;;3.03;1.13;;;13.10;99.90;;;;;;5093227;28;20430;-68
2021/05/14 07:40:20;;;;;;;4.60;0.90;;;13.10;99.90;;;;;;5093161;28;20254;-66
2021/05/14 07:42:46;;;;;;;2.27;1.03;;;13.20;99.90;;;;;;5092850;28;20425;-69
2021/05/14 07:45:12;;;;;;;1.63;1.03;;;13.30;99.90;;;;;;5094353;28;20258;-69
2021/05/14 07:47:37;;;;;;;3.90;1.00;;;13.30;99.90;;;;;;5096694;28;20024;-69
2021/05/14 07:50:04;;;;;;;2.15;0.80;;;13.40;99.90;;;;;;5096647;28;20103;-68
2021/05/14 07:52:29;;;;;;;1.83;0.68;;;13.60;99.90;;;;;;5097195;28;20035;-68
2021/05/14 07:54:55;;;;;;;1.50;0.70;;;13.70;99.90;;;;;;5096313;28;20024;-70
2021/05/14 07:57:21;;;;;;;0.75;0.50;;;13.90;99.90;;;;;;5078208;28;20134;-69
2021/05/14 07:59:48;;;;;;;2.05;0.82;;;14.80;99.90;;;;;;5096473;28;20111;-68
2021/05/14 08:02:14;;;;;;;2.33;0.80;;;16.80;99.90;;;;;;5096883;28;20016;-68
2021/05/14 08:04:40;;;;;;;0.90;0.50;;;19.20;98.00;;;;;;5096837;28;20028;-70
2021/05/14 08:07:05;;;;;;;1.60;0.60;;;21.50;93.20;;;;;;5079872;28;20046;-68
2021/05/14 08:09:31;;;;;;;1.88;0.80;;;22.30;85.20;;;;;;5097388;28;20020;-68
2021/05/14 08:11:57;;;;;;;;;;;23.60;80.00;;;;;;5078619;28;20077;-67
2021/05/14 08:14:23;;;;;;;2.78;0.60;;;25.10;72.60;;;;;;5096516;28;19918;-67
2021/05/14 08:16:48;;;;;;;1.17;0.70;;;26.00;66.90;;;;;;5096685;28;20035;-69
2021/05/14 08:19:14;;;;;;;2.55;0.57;;;26.20;64.00;;;;;;5096360;28;20055;-67
2021/05/14 08:21:42;;;;;;;1.15;0.50;;;26.50;59.80;;;;;;5095906;28;20533;-69
2021/05/14 08:24:09;;;;;;;1.40;0.50;;;26.50;59.70;;;;;;5077644;28;20042;-69
2021/05/14 08:26:35;;;;;;;1.00;0.55;;;27.30;58.30;;;;;;5096085;28;20384;-70
2021/05/14 08:29:00;;;;;;;3.70;0.70;;;28.40;56.10;;;;;;5096003;28;20020;-68
2021/05/14 08:31:26;;;;;;;1.20;0.57;;;29.90;53.50;;;;;;5096025;28;20024;-69
2021/05/14 08:33:51;;;;;;;1.05;0.50;;;30.60;49.30;;;;;;5095884;28;20020;-68
2021/05/14 08:36:19;;;;;;;1.27;0.52;;;31.00;47.50;;;;;;5095650;28;20557;-67
2021/05/14 08:38:45;;;;;;;0.90;0.68;;;30.90;46.90;;;;;;5096160;28;20024;-67
2021/05/14 08:41:11;;;;;;;0.60;0.40;;;31.00;46.10;;;;;;5096026;28;20445;-67
2021/05/14 08:43:37;;;;;;;2.90;0.60;;;31.20;45.40;;;;;;5096111;28;20043;-67
2021/05/14 08:46:04;;;;;;;2.35;0.60;;;31.40;44.40;;;;;;5095998;28;20477;-67
2021/05/14 08:48:38;;;;;;;1.35;0.52;;;31.40;45.70;;;;;;5096336;28;20437;-67
2021/05/14 08:51:06;;;;;;;1.40;0.50;;;32.10;44.20;;;;;;5095994;28;20129;-67
2021/05/14 08:53:32;;;;;;;1.65;0.60;;;30.70;44.70;;;;;;5077612;28;20024;-67
2021/05/14 08:55:58;;;;;;;0.70;0.50;;;30.50;44.30;;;;;;5095244;28;20044;-67
2021/05/14 08:58:25;;;;;;;1.17;0.50;;;30.50;44.50;;;;;;5094889;28;20453;-66
2021/05/14 09:00:50;;;;;;;1.13;0.70;;;29.80;44.80;;;;;;5077732;28;20031;-67
2021/05/14 09:03:17;;;;;;;1.90;0.60;;;30.60;45.00;;;;;;5095619;28;20028;-67
2021/05/14 09:05:46;;;;;;;2.20;0.70;;;31.20;44.30;;;;;;5096679;28;20016;-67
2021/05/14 09:08:12;;;;;;;2.90;0.70;;;31.80;43.40;;;;;;5095859;28;20310;-67
2021/05/14 09:10:38;;;;;;;2.28;0.50;;;32.00;42.70;;;;;;5077268;28;20030;-67
2021/05/14 09:13:11;;;;;;;1.45;0.70;;;32.00;42.60;;;;;;5095217;28;20024;-67
2021/05/14 09:15:40;;;;;;;2.47;0.57;;;31.90;43.60;;;;;;5095545;28;20484;-66
2021/05/14 09:18:17;;;;;;;1.10;0.63;;;31.80;42.10;;;;;;5094846;28;20028;-66
2021/05/14 09:20:45;;;;;;;1.42;0.65;;;32.10;41.80;;;;;;5094844;28;20050;-66
2021/05/14 09:23:20;;;;;;;1.92;0.60;;;31.70;42.00;;;;;;5076735;28;20034;-66
2021/05/14 09:25:53;;;;;;;1.35;0.50;;;31.50;42.10;;;;;;5094773;28;20024;-66
2021/05/14 09:28:38;;;;;;;0.93;0.70;;;31.70;41.40;;;;;;5094329;28;20024;-67
2021/05/14 09:31:20;;;;;;;1.90;0.60;;;31.90;41.00;;;;;;5094396;28;20035;-67
2021/05/14 09:33:47;;;;;;;0.80;0.50;;;31.90;40.90;;;;;;5076030;28;20481;-67
2021/05/14 09:36:16;;;;;;;1.27;0.80;;;31.90;40.70;;;;;;5094314;28;20031;-67
2021/05/14 09:38:50;;;;;;;1.17;0.45;;;32.00;40.60;;;;;;5095353;28;20024;-67
2021/05/14 09:41:27;;;;;;;2.35;0.65;;;32.40;40.20;;;;;;5094251;28;20606;-70
2021/05/14 09:44:06;;;;;;;0.93;0.60;;;31.90;40.40;;;;;;5094013;28;20406;-68
2021/05/14 09:46:36;;;;;;;2.05;1.20;;;30.50;41.60;;;;;;5094203;28;20028;-69
2021/05/14 09:49:04;;;;;;;2.10;1.20;;;30.00;42.80;;;;;;5075711;28;20107;-69
2021/05/14 09:51:32;;;;;;;1.55;0.50;;;30.50;42.70;;;;;;5094125;28;20034;-67
2021/05/14 09:54:26;;;;;;;0.73;0.50;;;30.90;41.90;;;;;;5094070;28;20028;-67
2021/05/14 09:59:55;;;;;;;2.22;0.63;;;28.90;42.50;;;;;;5093654;28;20024;-67
2021/05/14 10:02:23;;;;;;;0.82;0.40;;;27.40;44.80;;;;;;5093577;28;20496;-67
2021/05/14 10:04:52;;;;;;;1.20;0.60;;;27.80;44.20;;;;;;5093610;28;20415;-67
2021/05/14 10:07:18;;;;;;;0.93;0.60;;;28.90;44.30;;;;;;5093266;28;20051;-67
2021/05/14 10:09:48;;;;;;;3.40;0.90;;;30.40;42.30;;;;;;5074847;28;20078;-69
2021/05/14 10:12:17;;;;;;;0.95;0.55;;;31.20;41.30;;;;;;5093628;28;20097;-69
2021/05/14 10:14:45;;;;;;;2.38;0.70;;;32.00;40.50;;;;;;5093622;28;20024;-67
2021/05/14 10:17:11;;;;;;;2.75;0.77;;;31.30;40.80;;;;;;5075070;28;20024;-68
2021/05/14 10:19:38;;;;;;;2.05;0.73;;;30.60;41.40;;;;;;5093628;28;20050;-69
2021/05/14 10:22:04;;;;;;;2.50;0.73;;;29.80;41.60;;;;;;5074918;28;20124;-68
2021/05/14 10:24:58;;;;;;;1.55;0.70;;;29.40;42.20;;;;;;5075239;28;20063;-69
2021/05/14 10:27:41;;;;;;;1.42;0.50;;;30.10;42.50;;;;;;5074072;28;20504;-69
2021/05/14 10:30:08;;;;;;;0.75;0.52;;;30.90;41.50;;;;;;5075399;28;20024;-69
2021/05/14 10:32:40;;;;;;;1.17;0.73;;;31.70;40.60;;;;;;5075506;28;20024;-70
2021/05/14 10:35:07;;;;;;;3.63;0.90;;;32.70;40.00;;;;;;5093257;28;20027;-67
2021/05/14 10:37:50;;;;;;;1.42;0.60;;;33.90;39.10;;;;;;5093190;28;20032;-67
2021/05/14 10:40:29;;;;;;;2.03;0.77;;;33.50;37.80;;;;;;5075036;28;20046;-67
2021/05/14 10:42:55;;;;;;;1.45;0.60;;;33.40;38.50;;;;;;5093551;28;20016;-67
2021/05/14 10:46:04;;;;;;;1.00;0.70;;;33.40;38.90;;;;;;5092801;28;20027;-67
2021/05/14 10:48:29;;;;;;;1.48;0.40;;;32.60;38.80;;;;;;5085732;28;20048;-70
2021/05/14 10:50:59;;;;;;;1.50;0.65;;;31.60;39.60;;;;;;5092912;28;20101;-70
2021/05/14 10:53:45;;;;;;;1.45;0.80;;;31.40;39.80;;;;;;5092931;28;20431;-71
2021/05/14 10:56:11;;;;;;;2.92;0.70;;;32.10;38.70;;;;;;5075026;28;20513;-71
2021/05/14 10:58:49;;;;;;;1.30;0.60;;;33.10;38.30;;;;;;5093685;28;20024;-70
2021/05/14 11:01:43;;;;;;;3.08;1.42;;;33.30;37.60;;;;;;5093541;28;20013;-72
2021/05/14 11:04:12;;;;;;;0.98;0.75;;;32.60;38.10;;;;;;5075229;28;20031;-70
2021/05/14 11:06:50;;;;;;;1.35;0.95;;;31.50;37.80;;;;;;5092965;28;20055;-68
2021/05/14 11:09:17;;;;;;;1.02;0.47;;;29.40;39.00;;;;;;5093024;28;20016;-69
2021/05/14 11:12:00;;;;;;;2.28;0.52;;;25.80;43.30;;;;;;5092890;28;20047;-68
2021/05/14 11:14:46;;;;;;;2.28;0.93;;;24.20;46.10;;;;;;5092422;28;20115;-66
2021/05/14 11:17:15;;;;;;;3.90;0.80;;;23.20;48.40;;;;;;5092856;28;20016;-69
2021/05/14 11:19:49;;;;;;;3.50;0.50;;;22.50;51.70;;;;;;5093239;28;20046;-69
2021/05/14 11:22:23;;;;;;;1.33;0.70;;;22.30;49.80;;;;;;5096912;28;20476;-69
2021/05/14 11:24:54;;;;;;;2.00;0.70;;;22.10;50.50;;;;;;5078554;28;20057;-69
2021/05/14 11:27:34;;;;;;;2.45;0.68;;;21.90;51.20;;;;;;5096515;28;20027;-66
2021/05/14 11:30:02;;;;;;;1.17;0.50;;;21.50;51.20;;;;;;5096849;28;20074;-68
2021/05/14 11:32:28;;;;;;;1.77;0.70;;;21.10;50.90;;;;;;5078324;28;20105;-69
2021/05/14 11:35:03;;;;;;;1.33;0.90;;;20.70;52.90;;;;;;5077917;28;20489;-67
2021/05/14 11:37:31;;;;;;;2.30;1.00;;;20.40;53.10;;;;;;5096461;28;20035;-68
2021/05/14 11:40:24;;;;;;;1.25;0.70;;;20.40;53.70;;;;;;5096466;28;20021;-69
2021/05/14 11:42:52;;;;;;;1.30;0.70;;;20.50;52.90;;;;;;5095649;28;20052;-67
2021/05/14 11:45:23;;;;;;;2.53;1.02;;;20.50;52.30;;;;;;5096167;28;20044;-67
2021/05/14 11:47:52;;;;;;;1.05;0.60;;;20.50;53.20;;;;;;5096426;28;20062;-68
2021/05/14 11:50:36;;;;;;;3.13;0.65;;;20.60;53.90;;;;;;5077678;28;20078;-67
2021/05/14 11:53:04;;;;;;;2.35;0.70;;;20.60;52.40;;;;;;5096703;28;20415;-66
2021/05/14 11:55:30;;;;;;;1.13;0.50;;;20.40;52.80;;;;;;5096150;28;20023;-68
2021/05/14 11:57:59;;;;;;;3.75;0.40;;;20.30;52.20;;;;;;5095918;28;20042;-67
2021/05/14 12:00:31;;;;;;;1.40;0.50;;;20.30;52.90;;;;;;5095781;28;20526;-68
2021/05/14 12:03:06;;;;;;;1.55;0.70;;;20.30;52.30;;;;;;5095707;28;20099;-68
2021/05/14 12:05:32;;;;;;;2.47;0.70;;;20.30;52.90;;;;;;5095918;28;20395;-68
2021/05/14 12:08:27;;;;;;;1.65;0.70;;;20.30;53.60;;;;;;5095864;28;20020;-67
2021/05/14 12:10:56;;;;;;;1.65;0.80;;;20.30;54.50;;;;;;5082777;28;20032;-68
2021/05/14 12:13:24;;;;;;;4.88;0.70;;;20.30;54.70;;;;;;5095816;28;20035;-68
2021/05/14 12:16:00;;;;;;;2.70;0.80;;;20.30;55.00;;;;;;5095359;28;20036;-68
2021/05/14 12:18:30;;;;;;;1.50;0.70;;;20.40;55.30;;;;;;5077235;28;20449;-69
2021/05/14 12:20:57;;;;;;;1.52;0.52;;;20.40;54.90;;;;;;5095799;28;20107;-68
2021/05/14 12:23:24;;;;;;;2.58;0.60;;;20.30;54.80;;;;;;5095518;28;20020;-68
2021/05/14 12:26:00;;;;;;;3.83;0.80;;;20.50;54.50;;;;;;5095307;28;20034;-67
2021/05/14 12:28:41;;;;;;;1.85;0.40;;;20.60;54.50;;;;;;5095317;28;20028;-67
2021/05/14 12:31:13;;;;;;;0.95;0.77;;;20.60;53.10;;;;;;5095482;28;20089;-68
2021/05/14 12:33:55;;;;;;;2.03;0.70;;;20.60;53.60;;;;;;5095227;28;20024;-69
2021/05/14 12:36:30;;;;;;;2.35;0.60;;;20.50;53.60;;;;;;5077196;28;20073;-68
2021/05/14 12:39:12;;;;;;;2.25;0.80;;;20.60;53.90;;;;;;5096353;28;20016;-69
2021/05/14 12:41:57;;;;;;;3.13;0.68;;;20.70;53.30;;;;;;5095743;28;20023;-70
2021/05/14 12:44:29;;;;;;;1.33;0.40;;;20.70;52.60;;;;;;5077576;28;20134;-68
2021/05/14 12:47:08;;;;;;;3.20;0.90;;;20.60;52.90;;;;;;5095190;28;20422;-68
2021/05/14 12:49:55;;;;;;;2.42;0.68;;;20.60;53.50;;;;;;5095855;28;20073;-67
2021/05/14 12:52:28;;;;;;;3.77;0.80;;;20.40;54.50;;;;;;5095711;28;20021;-67
2021/05/14 12:55:02;;;;;;;1.85;0.77;;;20.20;54.90;;;;;;5095173;28;20016;-67
2021/05/14 12:57:30;;;;;;;5.32;0.90;;;20.20;55.10;;;;;;5094744;28;20129;-69
2021/05/14 12:59:56;;;;;;;3.15;0.60;;;20.10;56.30;;;;;;5095042;28;20031;-69
2021/05/14 13:02:41;;;;;;;2.80;0.70;;;19.90;56.70;;;;;;5076908;28;20028;-67